createdAt,value
2023-02-27T00:00:15.664Z,1015.73
2023-02-27T00:01:15.660Z,1015.77
2023-02-27T00:02:15.690Z,1015.8
2023-02-27T00:03:15.636Z,1015.76
2023-02-27T00:04:15.633Z,1015.77
2023-02-27T00:05:15.612Z,1015.73
2023-02-27T00:06:15.606Z,1015.8
2023-02-27T00:07:15.594Z,1015.77
2023-02-27T00:08:15.607Z,1015.77
2023-02-27T00:09:15.605Z,1015.76
2023-02-27T00:10:15.563Z,1015.74
2023-02-27T00:11:15.592Z,1015.8
2023-02-27T00:12:15.552Z,1015.78
2023-02-27T00:13:15.529Z,1015.81
2023-02-27T00:14:15.525Z,1015.73
2023-02-27T00:15:15.511Z,1015.78
2023-02-27T00:16:15.513Z,1015.76
2023-02-27T00:17:15.487Z,1015.82
2023-02-27T00:18:15.482Z,1015.73
2023-02-27T00:19:15.479Z,1015.78
2023-02-27T00:20:15.470Z,1015.73
2023-02-27T00:21:15.448Z,1015.76
2023-02-27T00:22:15.451Z,1015.76
2023-02-27T00:23:15.432Z,1015.73
2023-02-27T00:24:15.439Z,1015.78
2023-02-27T00:25:15.403Z,1015.69
2023-02-27T00:26:15.407Z,1015.74
2023-02-27T00:27:15.389Z,1015.74
2023-02-27T00:28:15.399Z,1015.76
2023-02-27T00:29:15.368Z,1015.77
2023-02-27T00:30:15.378Z,1015.7
2023-02-27T00:31:15.346Z,1015.77
2023-02-27T00:32:15.330Z,1015.74
2023-02-27T00:33:15.323Z,1015.79
2023-02-27T00:34:15.318Z,1015.79
2023-02-27T00:35:15.302Z,1015.79
2023-02-27T00:36:15.317Z,1015.77
2023-02-27T00:37:15.286Z,1015.85
2023-02-27T00:38:15.276Z,1015.82
2023-02-27T00:39:15.266Z,1015.84
2023-02-27T00:40:15.278Z,1015.84
2023-02-27T00:41:15.249Z,1015.87
2023-02-27T00:42:15.233Z,1015.8
2023-02-27T00:43:15.247Z,1015.87
2023-02-27T00:44:15.226Z,1015.93
2023-02-27T00:45:15.208Z,1015.92
2023-02-27T00:46:15.184Z,1015.93
2023-02-27T00:47:15.290Z,1015.91
2023-02-27T00:48:15.180Z,1015.85
2023-02-27T00:49:15.154Z,1015.83
2023-02-27T00:50:15.145Z,1015.83
2023-02-27T00:51:15.155Z,1015.85
2023-02-27T00:52:15.127Z,1015.85
2023-02-27T00:53:15.112Z,1015.87
2023-02-27T00:54:15.100Z,1015.89
2023-02-27T00:55:15.091Z,1015.89
2023-02-27T00:56:15.082Z,1015.9
2023-02-27T00:57:15.081Z,1015.83
2023-02-27T00:58:15.059Z,1015.86
2023-02-27T00:59:15.054Z,1015.88
2023-02-27T01:00:15.056Z,1015.86
2023-02-27T01:01:15.038Z,1015.83
2023-02-27T01:02:15.018Z,1015.79
2023-02-27T01:03:15.029Z,1015.84
2023-02-27T01:04:15.012Z,1015.84
2023-02-27T01:05:14.985Z,1015.78
2023-02-27T01:06:14.972Z,1015.84
2023-02-27T01:07:14.967Z,1015.85
2023-02-27T01:08:14.960Z,1015.83
2023-02-27T01:09:15.044Z,1015.96
2023-02-27T01:10:14.977Z,1015.95
2023-02-27T01:11:14.934Z,1015.96
2023-02-27T01:12:14.914Z,1015.91
2023-02-27T01:13:14.900Z,1015.9
2023-02-27T01:14:14.902Z,1015.93
2023-02-27T01:15:14.885Z,1015.92
2023-02-27T01:16:14.926Z,1015.95
2023-02-27T01:17:14.856Z,1015.92
2023-02-27T01:18:14.857Z,1015.93
2023-02-27T01:19:14.840Z,1015.9
2023-02-27T01:20:14.830Z,1015.87
2023-02-27T01:21:14.837Z,1015.79
2023-02-27T01:22:14.807Z,1015.85
2023-02-27T01:23:14.804Z,1015.89
2023-02-27T01:24:14.798Z,1015.87
2023-02-27T01:25:14.792Z,1015.84
2023-02-27T01:26:14.772Z,1015.84
2023-02-27T01:27:14.756Z,1015.89
2023-02-27T01:28:14.742Z,1015.84
2023-02-27T01:29:14.742Z,1015.86
2023-02-27T01:30:14.733Z,1015.86
2023-02-27T01:31:14.718Z,1015.84
2023-02-27T01:32:14.929Z,1015.81
2023-02-27T01:33:14.693Z,1015.83
2023-02-27T01:34:14.700Z,1015.84
2023-02-27T01:35:14.670Z,1015.87
2023-02-27T01:36:14.663Z,1015.87
2023-02-27T01:37:14.661Z,1015.89
2023-02-27T01:38:14.636Z,1015.85
2023-02-27T01:39:14.673Z,1015.87
2023-02-27T01:40:14.638Z,1015.85
2023-02-27T01:41:14.601Z,1015.91
2023-02-27T01:42:14.641Z,1015.81
2023-02-27T01:43:14.634Z,1015.86
2023-02-27T01:44:14.577Z,1015.88
2023-02-27T01:45:14.566Z,1015.89
2023-02-27T01:46:14.568Z,1015.89
2023-02-27T01:47:14.542Z,1015.87
2023-02-27T01:48:14.541Z,1015.9
2023-02-27T01:49:14.524Z,1015.88
2023-02-27T01:50:14.527Z,1015.92
2023-02-27T01:51:14.510Z,1015.89
2023-02-27T01:52:14.488Z,1015.87
2023-02-27T01:53:14.482Z,1015.88
2023-02-27T01:54:14.467Z,1015.84
2023-02-27T01:55:14.464Z,1015.83
2023-02-27T01:56:14.466Z,1015.84
2023-02-27T01:57:14.447Z,1015.86
2023-02-27T01:58:14.456Z,1015.92
2023-02-27T01:59:14.424Z,1015.94
2023-02-27T02:00:14.419Z,1015.96
2023-02-27T02:01:14.399Z,1015.94
2023-02-27T02:02:14.391Z,1015.89
2023-02-27T02:03:14.383Z,1015.92
2023-02-27T02:04:14.384Z,1015.93
2023-02-27T02:05:14.361Z,1015.95
2023-02-27T02:06:14.370Z,1015.9
2023-02-27T02:07:14.347Z,1015.91
2023-02-27T02:08:14.325Z,1015.95
2023-02-27T02:09:14.329Z,1015.88
2023-02-27T02:10:14.300Z,1015.9
2023-02-27T02:11:14.292Z,1015.91
2023-02-27T02:12:14.306Z,1015.83
2023-02-27T02:13:14.277Z,1015.84
2023-02-27T02:14:14.264Z,1015.8
2023-02-27T02:15:14.255Z,1015.85
2023-02-27T02:16:14.272Z,1015.85
2023-02-27T02:17:14.255Z,1015.79
2023-02-27T02:18:14.228Z,1015.82
2023-02-27T02:19:14.209Z,1015.82
2023-02-27T02:20:14.234Z,1015.83
2023-02-27T02:21:14.219Z,1015.8
2023-02-27T02:22:14.222Z,1015.74
2023-02-27T02:23:14.217Z,1015.71
2023-02-27T02:24:14.154Z,1015.79
2023-02-27T02:25:14.153Z,1015.81
2023-02-27T02:26:14.172Z,1015.83
2023-02-27T02:27:14.123Z,1015.82
2023-02-27T02:28:14.129Z,1015.82
2023-02-27T02:29:14.123Z,1015.74
2023-02-27T02:30:14.106Z,1015.76
2023-02-27T02:31:14.145Z,1015.78
2023-02-27T02:32:14.074Z,1015.85
2023-02-27T02:33:14.068Z,1015.81
2023-02-27T02:34:14.051Z,1015.82
2023-02-27T02:35:14.048Z,1015.87
2023-02-27T02:36:14.031Z,1015.82
2023-02-27T02:37:14.019Z,1015.89
2023-02-27T02:38:14.008Z,1015.83
2023-02-27T02:39:13.999Z,1015.85
2023-02-27T02:40:14.024Z,1015.85
2023-02-27T02:41:13.997Z,1015.89
2023-02-27T02:42:13.977Z,1015.92
2023-02-27T02:43:13.957Z,1015.86
2023-02-27T02:44:13.951Z,1015.88
2023-02-27T02:45:13.961Z,1015.88
2023-02-27T02:46:13.940Z,1015.87
2023-02-27T02:47:13.939Z,1015.89
2023-02-27T02:48:13.931Z,1015.9
2023-02-27T02:49:13.898Z,1015.88
2023-02-27T02:50:13.887Z,1015.85
2023-02-27T02:51:13.887Z,1015.9
2023-02-27T02:52:13.879Z,1015.91
2023-02-27T02:53:13.863Z,1015.89
2023-02-27T02:54:13.849Z,1015.86
2023-02-27T02:55:13.845Z,1015.87
2023-02-27T02:56:13.826Z,1015.93
2023-02-27T02:57:13.830Z,1015.88
2023-02-27T02:58:13.807Z,1015.85
2023-02-27T02:59:13.805Z,1015.88
2023-02-27T03:00:13.793Z,1015.92
2023-02-27T03:01:13.792Z,1015.84
2023-02-27T03:02:13.851Z,1015.86
2023-02-27T03:03:13.813Z,1015.86
2023-02-27T03:04:13.764Z,1015.82
2023-02-27T03:05:13.733Z,1015.85
2023-02-27T03:06:13.724Z,1015.84
2023-02-27T03:07:13.710Z,1015.87
2023-02-27T03:08:13.705Z,1015.83
2023-02-27T03:09:13.699Z,1015.84
2023-02-27T03:10:13.720Z,1015.8
2023-02-27T03:11:13.681Z,1015.8
2023-02-27T03:12:13.680Z,1015.85
2023-02-27T03:13:13.658Z,1015.8
2023-02-27T03:14:13.646Z,1015.79
2023-02-27T03:15:13.628Z,1015.79
2023-02-27T03:16:13.656Z,1015.83
2023-02-27T03:17:13.608Z,1015.81
2023-02-27T03:18:13.602Z,1015.8
2023-02-27T03:19:13.590Z,1015.83
2023-02-27T03:20:13.576Z,1015.86
2023-02-27T03:21:13.581Z,1015.89
2023-02-27T03:22:13.569Z,1015.85
2023-02-27T03:23:13.546Z,1015.8
2023-02-27T03:24:13.537Z,1015.88
2023-02-27T03:25:13.525Z,1015.84
2023-02-27T03:26:13.517Z,1015.8
2023-02-27T03:27:13.522Z,1015.9
2023-02-27T03:28:13.516Z,1015.86
2023-02-27T03:29:13.483Z,1015.85
2023-02-27T03:30:13.476Z,1015.91
2023-02-27T03:31:13.463Z,1015.82
2023-02-27T03:32:13.457Z,1015.85
2023-02-27T03:33:13.469Z,1015.91
2023-02-27T03:34:13.435Z,1015.95
2023-02-27T03:35:13.424Z,1015.96
2023-02-27T03:36:13.406Z,1015.89
2023-02-27T03:37:13.405Z,1015.9
2023-02-27T03:38:13.415Z,1015.91
2023-02-27T03:39:13.377Z,1015.93
2023-02-27T03:40:13.366Z,1015.88
2023-02-27T03:41:13.357Z,1015.91
2023-02-27T03:42:13.367Z,1015.95
2023-02-27T03:43:13.349Z,1015.89
2023-02-27T03:44:13.343Z,1015.89
2023-02-27T03:45:13.357Z,1015.95
2023-02-27T03:46:13.320Z,1015.94
2023-02-27T03:47:13.294Z,1015.86
2023-02-27T03:48:13.282Z,1015.91
2023-02-27T03:49:13.286Z,1015.96
2023-02-27T03:50:13.266Z,1015.96
2023-02-27T03:51:13.287Z,1015.92
2023-02-27T03:52:13.260Z,1015.95
2023-02-27T03:53:13.231Z,1015.95
2023-02-27T03:54:13.223Z,1016
2023-02-27T03:55:13.213Z,1016.06
2023-02-27T03:56:13.201Z,1016.07
2023-02-27T03:57:13.191Z,1016.03
2023-02-27T03:58:13.183Z,1016.04
2023-02-27T03:59:13.171Z,1016.06
2023-02-27T04:00:13.160Z,1016.07
2023-02-27T04:01:13.163Z,1016.12
2023-02-27T04:02:13.136Z,1016.14
2023-02-27T04:03:13.127Z,1016.2
2023-02-27T04:04:13.125Z,1016.13
2023-02-27T04:05:13.113Z,1016.16
2023-02-27T04:06:13.095Z,1016.18
2023-02-27T04:07:13.083Z,1016.2
2023-02-27T04:08:13.086Z,1016.16
2023-02-27T04:09:13.067Z,1016.27
2023-02-27T04:10:13.054Z,1016.25
2023-02-27T04:11:13.048Z,1016.23
2023-02-27T04:12:13.062Z,1016.22
2023-02-27T04:13:13.044Z,1016.27
2023-02-27T04:14:13.023Z,1016.29
2023-02-27T04:15:13.109Z,1016.25
2023-02-27T04:16:12.991Z,1016.17
2023-02-27T04:17:12.982Z,1016.23
2023-02-27T04:18:12.991Z,1016.23
2023-02-27T04:19:12.987Z,1016.24
2023-02-27T04:20:12.949Z,1016.28
2023-02-27T04:21:12.940Z,1016.23
2023-02-27T04:22:12.946Z,1016.26
2023-02-27T04:23:12.936Z,1016.28
2023-02-27T04:24:12.916Z,1016.23
2023-02-27T04:25:12.919Z,1016.31
2023-02-27T04:26:12.890Z,1016.3
2023-02-27T04:27:12.894Z,1016.31
2023-02-27T04:28:12.870Z,1016.37
2023-02-27T04:29:12.862Z,1016.37
2023-02-27T04:30:12.844Z,1016.4
2023-02-27T04:31:12.836Z,1016.43
2023-02-27T04:32:12.832Z,1016.43
2023-02-27T04:33:12.847Z,1016.42
2023-02-27T04:34:12.840Z,1016.42
2023-02-27T04:35:12.803Z,1016.45
2023-02-27T04:36:12.821Z,1016.4
2023-02-27T04:37:12.775Z,1016.41
2023-02-27T04:38:12.777Z,1016.36
2023-02-27T04:39:12.757Z,1016.42
2023-02-27T04:40:22.597Z,1016.43
2023-02-27T04:41:12.742Z,1016.43
2023-02-27T04:42:12.777Z,1016.41
2023-02-27T04:43:12.744Z,1016.44
2023-02-27T04:44:12.708Z,1016.38
2023-02-27T04:45:21.539Z,1016.45
2023-02-27T04:46:12.702Z,1016.49
2023-02-27T04:47:12.683Z,1016.47
2023-02-27T04:48:12.670Z,1016.43
2023-02-27T04:49:12.655Z,1016.41
2023-02-27T04:50:12.640Z,1016.44
2023-02-27T04:51:12.631Z,1016.46
2023-02-27T04:52:12.639Z,1016.46
2023-02-27T04:53:12.633Z,1016.5
2023-02-27T04:54:12.603Z,1016.51
2023-02-27T04:55:12.603Z,1016.52
2023-02-27T04:56:12.573Z,1016.44
2023-02-27T04:57:12.582Z,1016.49
2023-02-27T04:58:12.568Z,1016.47
2023-02-27T04:59:12.560Z,1016.51
2023-02-27T05:00:12.547Z,1016.57
2023-02-27T05:01:12.520Z,1016.57
2023-02-27T05:02:12.594Z,1016.5
2023-02-27T05:03:12.509Z,1016.58
2023-02-27T05:04:12.502Z,1016.57
2023-02-27T05:05:12.494Z,1016.61
2023-02-27T05:06:12.488Z,1016.59
2023-02-27T05:07:12.463Z,1016.57
2023-02-27T05:08:12.447Z,1016.59
2023-02-27T05:09:12.446Z,1016.63
2023-02-27T05:10:12.436Z,1016.66
2023-02-27T05:11:12.422Z,1016.64
2023-02-27T05:12:12.418Z,1016.63
2023-02-27T05:13:12.397Z,1016.67
2023-02-27T05:14:12.397Z,1016.69
2023-02-27T05:15:12.389Z,1016.64
2023-02-27T05:16:12.382Z,1016.66
2023-02-27T05:17:12.450Z,1016.66
2023-02-27T05:18:12.369Z,1016.66
2023-02-27T05:19:12.333Z,1016.67
2023-02-27T05:20:12.340Z,1016.68
2023-02-27T05:21:12.333Z,1016.67
2023-02-27T05:22:12.304Z,1016.63
2023-02-27T05:23:12.326Z,1016.7
2023-02-27T05:24:12.286Z,1016.72
2023-02-27T05:25:12.277Z,1016.73
2023-02-27T05:26:12.264Z,1016.67
2023-02-27T05:27:12.268Z,1016.75
2023-02-27T05:28:12.284Z,1016.77
2023-02-27T05:29:12.229Z,1016.69
2023-02-27T05:30:12.228Z,1016.75
2023-02-27T05:31:12.223Z,1016.75
2023-02-27T05:32:12.199Z,1016.68
2023-02-27T05:33:12.203Z,1016.72
2023-02-27T05:34:12.203Z,1016.72
2023-02-27T05:35:12.193Z,1016.72
2023-02-27T05:36:12.187Z,1016.66
2023-02-27T05:37:12.148Z,1016.68
2023-02-27T05:38:12.145Z,1016.65
2023-02-27T05:39:12.155Z,1016.75
2023-02-27T05:40:12.116Z,1016.65
2023-02-27T05:41:12.103Z,1016.67
2023-02-27T05:42:12.101Z,1016.75
2023-02-27T05:43:12.091Z,1016.69
2023-02-27T05:44:12.073Z,1016.69
2023-02-27T05:45:12.075Z,1016.68
2023-02-27T05:46:12.055Z,1016.76
2023-02-27T05:47:12.047Z,1016.74
2023-02-27T05:48:12.055Z,1016.7
2023-02-27T05:49:12.024Z,1016.73
2023-02-27T05:50:12.038Z,1016.78
2023-02-27T05:51:12.022Z,1016.67
2023-02-27T05:52:11.994Z,1016.76
2023-02-27T05:53:11.983Z,1016.74
2023-02-27T05:54:11.970Z,1016.71
2023-02-27T05:55:11.976Z,1016.69
2023-02-27T05:56:11.948Z,1016.63
2023-02-27T05:57:11.959Z,1016.67
2023-02-27T06:00:10.146Z,1016.65
2023-02-27T06:01:17.522Z,1016.7
2023-02-27T06:02:09.908Z,1016.66
2023-02-27T06:03:09.897Z,1016.65
2023-02-27T06:04:17.473Z,1016.66
2023-02-27T06:06:26.011Z,1016.75
2023-02-27T06:07:25.960Z,1016.73
2023-02-27T06:08:25.953Z,1016.81
2023-02-27T06:09:25.941Z,1016.79
2023-02-27T06:10:25.935Z,1016.8
2023-02-27T06:11:25.920Z,1016.76
2023-02-27T06:12:25.920Z,1016.8
2023-02-27T06:13:25.901Z,1016.8
2023-02-27T06:14:25.900Z,1016.77
2023-02-27T06:15:25.894Z,1016.78
2023-02-27T06:16:25.873Z,1016.81
2023-02-27T06:17:25.872Z,1016.84
2023-02-27T06:18:25.859Z,1016.83
2023-02-27T06:19:25.835Z,1016.92
2023-02-27T06:20:25.836Z,1016.95
2023-02-27T06:21:25.832Z,1016.92
2023-02-27T06:22:25.808Z,1016.96
2023-02-27T06:23:25.822Z,1017.01
2023-02-27T06:24:25.801Z,1016.98
2023-02-27T06:25:25.813Z,1017.01
2023-02-27T06:26:25.778Z,1017.03
2023-02-27T06:27:25.783Z,1016.99
2023-02-27T06:28:25.777Z,1017.04
2023-02-27T06:29:25.739Z,1017.11
2023-02-27T06:30:25.748Z,1017.14
2023-02-27T06:31:25.733Z,1017.13
2023-02-27T06:32:25.741Z,1017.17
2023-02-27T06:33:25.700Z,1017.16
2023-02-27T06:34:25.774Z,1017.14
2023-02-27T06:35:25.675Z,1017.15
2023-02-27T06:36:25.666Z,1017.13
2023-02-27T06:37:25.656Z,1017.13
2023-02-27T06:38:25.646Z,1017.2
2023-02-27T06:39:25.651Z,1017.19
2023-02-27T06:40:25.625Z,1017.12
2023-02-27T06:41:25.621Z,1017.19
2023-02-27T06:42:25.739Z,1017.14
2023-02-27T06:43:25.591Z,1017.22
2023-02-27T06:44:25.590Z,1017.15
2023-02-27T06:45:25.587Z,1017.18
2023-02-27T06:46:25.562Z,1017.18
2023-02-27T06:47:25.564Z,1017.22
2023-02-27T06:48:25.541Z,1017.23
2023-02-27T06:49:25.530Z,1017.3
2023-02-27T06:50:25.566Z,1017.3
2023-02-27T06:51:25.515Z,1017.32
2023-02-27T06:52:25.509Z,1017.32
2023-02-27T06:53:25.498Z,1017.3
2023-02-27T06:54:25.493Z,1017.35
2023-02-27T06:55:25.470Z,1017.31
2023-02-27T06:56:25.464Z,1017.34
2023-02-27T06:57:25.448Z,1017.34
2023-02-27T06:58:25.440Z,1017.35
2023-02-27T06:59:25.456Z,1017.36
2023-02-27T07:00:25.431Z,1017.37
2023-02-27T07:01:25.411Z,1017.31
2023-02-27T07:02:25.403Z,1017.32
2023-02-27T07:03:25.410Z,1017.36
2023-02-27T07:04:25.404Z,1017.38
2023-02-27T07:05:25.390Z,1017.28
2023-02-27T07:06:25.355Z,1017.34
2023-02-27T07:07:25.343Z,1017.34
2023-02-27T07:08:25.336Z,1017.29
2023-02-27T07:09:25.334Z,1017.32
2023-02-27T07:10:25.328Z,1017.32
2023-02-27T07:11:25.314Z,1017.43
2023-02-27T07:12:25.298Z,1017.38
2023-02-27T07:13:25.281Z,1017.4
2023-02-27T07:14:25.284Z,1017.44
2023-02-27T07:15:25.273Z,1017.45
2023-02-27T07:16:25.273Z,1017.48
2023-02-27T07:17:47.468Z,1017.39
2023-02-27T07:18:25.237Z,1017.38
2023-02-27T07:19:25.227Z,1017.41
2023-02-27T07:20:25.237Z,1017.47
2023-02-27T07:21:25.241Z,1017.39
2023-02-27T07:22:25.204Z,1017.36
2023-02-27T07:23:25.271Z,1017.37
2023-02-27T07:24:25.187Z,1017.38
2023-02-27T07:25:25.165Z,1017.46
2023-02-27T07:26:25.167Z,1017.5
2023-02-27T07:27:39.751Z,1017.5
2023-02-27T07:28:25.155Z,1017.53
2023-02-27T07:29:25.117Z,1017.52
2023-02-27T07:30:25.106Z,1017.54
2023-02-27T07:31:25.120Z,1017.61
2023-02-27T07:32:25.097Z,1017.56
2023-02-27T07:33:25.095Z,1017.55
2023-02-27T07:34:25.088Z,1017.53
2023-02-27T07:35:25.056Z,1017.47
2023-02-27T07:36:25.198Z,1017.59
2023-02-27T07:37:49.213Z,1017.51
2023-02-27T07:38:25.038Z,1017.55
2023-02-27T07:39:25.023Z,1017.54
2023-02-27T07:40:25.013Z,1017.56
2023-02-27T07:41:24.994Z,1017.6
2023-02-27T07:42:24.993Z,1017.62
2023-02-27T07:43:24.977Z,1017.64
2023-02-27T07:44:25.011Z,1017.6
2023-02-27T07:45:24.980Z,1017.64
2023-02-27T07:46:25.312Z,1017.61
2023-02-27T07:47:24.949Z,1017.68
2023-02-27T07:48:24.926Z,1017.64
2023-02-27T07:49:24.916Z,1017.65
2023-02-27T07:50:24.961Z,1017.68
2023-02-27T07:51:24.898Z,1017.65
2023-02-27T07:52:25.098Z,1017.56
2023-02-27T07:53:25.878Z,1017.59
2023-02-27T07:54:24.918Z,1017.58
2023-02-27T07:55:25.920Z,1017.54
2023-02-27T07:56:24.846Z,1017.54
2023-02-27T07:57:24.836Z,1017.6
2023-02-27T07:58:24.840Z,1017.58
2023-02-27T08:01:35.434Z,1017.58
2023-02-27T08:04:19.783Z,1017.44
2023-02-27T08:05:19.795Z,1017.47
2023-02-27T08:06:19.743Z,1017.46
2023-02-27T08:07:19.743Z,1017.42
2023-02-27T08:08:19.999Z,1017.44
2023-02-27T08:09:19.961Z,1017.4
2023-02-27T08:10:20.721Z,1017.39
2023-02-27T08:11:20.633Z,1017.42
2023-02-27T08:12:19.755Z,1017.44
2023-02-27T08:13:19.730Z,1017.35
2023-02-27T08:14:19.675Z,1017.33
2023-02-27T08:15:21.602Z,1017.34
2023-02-27T08:16:21.609Z,1017.25
2023-02-27T08:17:19.630Z,1017.33
2023-02-27T08:18:19.625Z,1017.39
2023-02-27T08:19:19.629Z,1017.43
2023-02-27T08:20:19.812Z,1017.48
2023-02-27T08:21:19.592Z,1017.42
2023-02-27T08:22:19.577Z,1017.4
2023-02-27T08:23:19.570Z,1017.46
2023-02-27T08:24:19.597Z,1017.48
2023-02-27T08:25:19.590Z,1017.52
2023-02-27T08:26:19.593Z,1017.47
2023-02-27T08:27:20.155Z,1017.46
2023-02-27T08:28:19.531Z,1017.43
2023-02-27T08:29:19.519Z,1017.45
2023-02-27T08:30:19.526Z,1017.46
2023-02-27T08:31:19.485Z,1017.41
2023-02-27T08:32:19.478Z,1017.46
2023-02-27T08:33:19.470Z,1017.37
2023-02-27T08:34:19.454Z,1017.47
2023-02-27T08:35:19.478Z,1017.41
2023-02-27T08:36:19.449Z,1017.44
2023-02-27T08:37:19.422Z,1017.49
2023-02-27T08:38:19.435Z,1017.52
2023-02-27T08:39:19.444Z,1017.53
2023-02-27T08:40:19.423Z,1017.51
2023-02-27T08:41:19.435Z,1017.53
2023-02-27T08:42:19.406Z,1017.58
2023-02-27T08:43:19.369Z,1017.63
2023-02-27T08:44:19.356Z,1017.66
2023-02-27T08:45:19.346Z,1017.65
2023-02-27T08:46:19.331Z,1017.69
2023-02-27T08:47:19.336Z,1017.64
2023-02-27T08:48:19.312Z,1017.59
2023-02-27T08:49:19.303Z,1017.6
2023-02-27T08:50:19.333Z,1017.56
2023-02-27T08:51:19.293Z,1017.61
2023-02-27T08:52:19.344Z,1017.64
2023-02-27T08:53:19.274Z,1017.63
2023-02-27T08:54:19.274Z,1017.6
2023-02-27T08:55:19.256Z,1017.62
2023-02-27T08:56:19.286Z,1017.66
2023-02-27T08:57:19.215Z,1017.67
2023-02-27T08:58:19.238Z,1017.66
2023-02-27T08:59:19.258Z,1017.75
2023-02-27T09:00:19.268Z,1017.7
2023-02-27T09:01:19.310Z,1017.67
2023-02-27T09:02:19.202Z,1017.72
2023-02-27T09:03:19.152Z,1017.65
2023-02-27T09:04:19.140Z,1017.65
2023-02-27T09:05:19.157Z,1017.62
2023-02-27T09:06:19.122Z,1017.63
2023-02-27T09:07:19.115Z,1017.66
2023-02-27T09:08:19.146Z,1017.59
2023-02-27T09:09:19.154Z,1017.6
2023-02-27T09:10:19.188Z,1017.63
2023-02-27T09:11:19.159Z,1017.63
2023-02-27T09:12:19.167Z,1017.64
2023-02-27T09:13:19.173Z,1017.64
2023-02-27T09:14:19.054Z,1017.59
2023-02-27T09:17:38.074Z,1017.62
2023-02-27T09:18:38.070Z,1017.69
2023-02-27T09:19:38.085Z,1017.69
2023-02-27T09:20:38.044Z,1017.72
2023-02-27T09:23:05.072Z,1017.66
2023-02-27T09:24:05.059Z,1017.76
2023-02-27T09:25:05.091Z,1017.77
2023-02-27T09:26:05.041Z,1017.76
2023-02-27T09:27:05.038Z,1017.67
2023-02-27T09:28:05.013Z,1017.7
2023-02-27T09:29:05.005Z,1017.72
2023-02-27T09:30:04.997Z,1017.74
2023-02-27T09:31:05.029Z,1017.75
2023-02-27T09:32:04.978Z,1017.71
2023-02-27T09:33:04.982Z,1017.7
2023-02-27T09:34:04.962Z,1017.66
2023-02-27T09:35:04.976Z,1017.73
2023-02-27T09:36:04.937Z,1017.67
2023-02-27T09:37:04.922Z,1017.72
2023-02-27T09:38:04.941Z,1017.71
2023-02-27T09:41:11.387Z,1017.69
2023-02-27T09:43:28.499Z,1017.7
2023-02-27T09:44:28.521Z,1017.7
2023-02-27T09:45:28.453Z,1017.68
2023-02-27T09:46:28.450Z,1017.69
2023-02-27T09:47:28.444Z,1017.75
2023-02-27T09:48:28.448Z,1017.61
2023-02-27T09:49:28.425Z,1017.63
2023-02-27T09:50:28.414Z,1017.65
2023-02-27T09:51:28.395Z,1017.58
2023-02-27T09:52:28.381Z,1017.61
2023-02-27T09:53:28.377Z,1017.65
2023-02-27T09:54:28.360Z,1017.65
2023-02-27T09:55:28.476Z,1017.67
2023-02-27T09:56:28.371Z,1017.69
2023-02-27T09:57:28.334Z,1017.59
2023-02-27T09:58:28.336Z,1017.57
2023-02-27T09:59:28.304Z,1017.59
2023-02-27T10:00:28.308Z,1017.62
2023-02-27T10:01:28.295Z,1017.6
2023-02-27T10:02:28.282Z,1017.61
2023-02-27T10:03:28.324Z,1017.64
2023-02-27T10:04:28.252Z,1017.63
2023-02-27T10:05:28.247Z,1017.66
2023-02-27T10:06:28.243Z,1017.67
2023-02-27T10:07:28.223Z,1017.56
2023-02-27T10:08:28.213Z,1017.64
2023-02-27T10:09:28.204Z,1017.56
2023-02-27T10:10:28.200Z,1017.5
2023-02-27T10:11:36.790Z,1017.51
2023-02-27T10:13:44.381Z,1017.48
2023-02-27T10:14:44.355Z,1017.48
2023-02-27T10:15:44.368Z,1017.45
2023-02-27T10:19:19.488Z,1017.42
2023-02-27T10:20:19.573Z,1017.4
2023-02-27T10:23:48.685Z,1017.42
2023-02-27T10:24:48.622Z,1017.42
2023-02-27T10:25:48.649Z,1017.41
2023-02-27T10:26:48.583Z,1017.43
2023-02-27T10:27:48.597Z,1017.47
2023-02-27T10:28:48.649Z,1017.51
2023-02-27T10:29:49.727Z,1017.5
2023-02-27T10:30:48.563Z,1017.55
2023-02-27T10:31:48.635Z,1017.45
2023-02-27T10:32:48.520Z,1017.55
2023-02-27T10:35:38.765Z,1017.48
2023-02-27T10:36:38.650Z,1017.5
2023-02-27T10:37:38.647Z,1017.5
2023-02-27T10:38:38.662Z,1017.45
2023-02-27T10:39:38.605Z,1017.43
2023-02-27T10:40:38.644Z,1017.4
2023-02-27T10:41:38.619Z,1017.38
2023-02-27T10:42:38.577Z,1017.44
2023-02-27T10:43:38.568Z,1017.42
2023-02-27T10:44:38.555Z,1017.44
2023-02-27T10:45:38.631Z,1017.47
2023-02-27T10:46:38.545Z,1017.45
2023-02-27T10:47:38.560Z,1017.52
2023-02-27T10:48:38.514Z,1017.51
2023-02-27T10:49:38.512Z,1017.49
2023-02-27T10:50:38.490Z,1017.57
2023-02-27T10:51:38.487Z,1017.43
2023-02-27T10:52:38.469Z,1017.5
2023-02-27T10:53:38.504Z,1017.52
2023-02-27T10:54:38.442Z,1017.49
2023-02-27T10:55:38.433Z,1017.53
2023-02-27T10:56:38.445Z,1017.53
2023-02-27T10:57:38.425Z,1017.5
2023-02-27T10:58:38.407Z,1017.45
2023-02-27T10:59:38.394Z,1017.47
2023-02-27T11:00:38.386Z,1017.48
2023-02-27T11:01:38.375Z,1017.42
2023-02-27T11:02:38.381Z,1017.42
2023-02-27T11:03:38.350Z,1017.45
2023-02-27T11:04:38.378Z,1017.38
2023-02-27T11:06:56.540Z,1017.34
2023-02-27T11:07:56.478Z,1017.35
2023-02-27T11:08:56.605Z,1017.26
2023-02-27T11:09:56.463Z,1017.3
2023-02-27T11:10:56.492Z,1017.31
2023-02-27T11:11:56.424Z,1017.32
2023-02-27T11:12:56.426Z,1017.29
2023-02-27T11:13:56.794Z,1017.34
2023-02-27T11:14:56.357Z,1017.34
2023-02-27T11:15:56.352Z,1017.35
2023-02-27T11:16:56.341Z,1017.37
2023-02-27T11:17:56.475Z,1017.29
2023-02-27T11:18:56.369Z,1017.3
2023-02-27T11:47:38.999Z,1017.13
2023-02-27T11:48:38.958Z,1017.13
2023-02-27T11:49:39.032Z,1017.1
2023-02-27T11:50:38.914Z,1017.05
2023-02-27T11:51:38.929Z,1017.07
2023-02-27T11:54:45.227Z,1017.13
2023-02-27T12:03:49.487Z,1017.04
2023-02-27T12:04:49.459Z,1017.09
2023-02-27T12:05:49.454Z,1017.07
2023-02-27T12:06:49.449Z,1017.05
2023-02-27T12:07:49.434Z,1017.13
2023-02-27T12:08:49.447Z,1017.03
2023-02-27T12:09:49.442Z,1016.97
2023-02-27T12:10:49.502Z,1017.01
2023-02-27T12:11:49.392Z,1016.97
2023-02-27T12:12:49.385Z,1016.98
2023-02-27T12:13:49.369Z,1017.07
2023-02-27T12:14:49.356Z,1017.05
2023-02-27T12:15:49.355Z,1017.09
2023-02-27T12:16:49.343Z,1017.08
2023-02-27T12:17:49.331Z,1017.07
2023-02-27T12:18:49.331Z,1017.01
2023-02-27T12:19:49.306Z,1017.04
2023-02-27T12:31:27.147Z,1017.13
2023-02-27T12:32:27.103Z,1017.18
2023-02-27T12:33:27.096Z,1017.51
2023-02-27T12:34:27.134Z,1017.16
2023-02-27T12:35:27.318Z,1016.89
2023-02-27T12:36:27.053Z,1016.82
2023-02-27T12:37:27.050Z,1016.85
2023-02-27T12:38:27.046Z,1017.25
2023-02-27T12:39:27.026Z,1017.19
2023-02-27T12:40:34.617Z,1017
2023-02-27T12:41:27.007Z,1017.25
2023-02-27T12:42:27.042Z,1017.06
2023-02-27T12:43:34.633Z,1016.74
2023-02-27T12:44:26.995Z,1017.25
2023-02-27T12:45:26.965Z,1016.91
2023-02-27T12:46:26.958Z,1016.7
2023-02-27T12:47:26.964Z,1016.74
2023-02-27T12:48:26.974Z,1016.78
2023-02-27T12:49:26.916Z,1016.76
2023-02-27T12:50:26.950Z,1016.83
2023-02-27T12:51:26.898Z,1016.84
2023-02-27T12:52:26.923Z,1016.87
2023-02-27T12:53:26.874Z,1016.82
2023-02-27T12:54:26.936Z,1016.87
2023-02-27T12:55:26.903Z,1016.81
2023-02-27T12:57:47.954Z,1016.89
2023-02-27T13:03:01.935Z,1017.05
2023-02-27T13:04:02.846Z,1017.03
2023-02-27T13:06:33.032Z,1017.01
2023-02-27T13:07:41.399Z,1017
2023-02-27T13:08:32.702Z,1017.04
2023-02-27T13:09:32.688Z,1017.01
2023-02-27T13:10:32.671Z,1016.97
2023-02-27T13:11:41.442Z,1016.92
2023-02-27T13:12:32.808Z,1016.92
2023-02-27T13:13:32.674Z,1016.93
2023-02-27T13:14:40.300Z,1016.92
2023-02-27T13:15:33.625Z,1016.92
2023-02-27T13:16:41.986Z,1016.92
2023-02-27T13:17:32.629Z,1016.84
2023-02-27T13:18:32.656Z,1016.86
2023-02-27T13:19:32.628Z,1016.89
2023-02-27T13:20:32.570Z,1016.92
2023-02-27T13:21:41.150Z,1016.89
2023-02-27T13:22:32.546Z,1016.9
2023-02-27T13:23:32.543Z,1016.82
2023-02-27T13:24:32.554Z,1016.86
2023-02-27T13:25:32.519Z,1016.87
2023-02-27T13:26:32.511Z,1016.91
2023-02-27T13:27:32.494Z,1016.82